»·PEaware :: N409LP L51-L88

N409LP :: L51-L88

FLIGHT INFORMATION

Flight Status: Arrived
Operator: Privately registered:
United States
More flights under this callsign
Pilot: Mike T. (22492)
Aircraft: CESSNA 172 SKYHAWK
(C172)
More flights by this aircraft type
Origin: L51
Destination: L88 New Cuyama
United States
More flights between these airports :: More routes between these airports
Route: DIRECT
File this flight plan on PilotEdge
Remarks: Cat 1
Altitude:
(Current/Filed)
7,500ft
Speed:
(Current/Filed)
110kts
Departed: 08-Jan-19 06:48 PM
Arrived: 08-Jan-19 07:23 PM
Distance/Time
Traveled:
Not Available
Distance/Time
To Go:
Arrived

Flight Plot

Page will automatically refresh every two minutes.

Flight plan parsing failed; only flown route is shown


Map Options




Map Legend


Flown Route
Filed Route
Departure Airport
Arrival Airport
Navaid (VOR, NDB)
Fix

Horizontal Profiles

Position Reports

Time Latitude Longitude Heading Altitude Ground
Speed
08-Jan-19 18:36 35.102275 -120.622530 210 16ft 0kts
08-Jan-19 18:37 35.102275 -120.622530 210 16ft 0kts
08-Jan-19 18:38 35.102274 -120.622530 210 16ft 0kts
08-Jan-19 18:39 35.102274 -120.622530 210 16ft 0kts
08-Jan-19 18:40 35.102274 -120.622530 210 16ft 0kts
08-Jan-19 18:41 35.102274 -120.622530 210 16ft 0kts
08-Jan-19 18:42 35.102274 -120.622530 210 16ft 0kts
08-Jan-19 18:43 35.102557 -120.623208 302 16ft 9kts
08-Jan-19 18:44 35.103519 -120.625054 266 14ft 0kts
08-Jan-19 18:45 35.103519 -120.625054 265 14ft 0kts
08-Jan-19 18:46 35.103104 -120.625228 122 14ft 4kts
08-Jan-19 18:47 35.101485 -120.622083 121 18ft 71kts
08-Jan-19 18:48 35.092569 -120.599037 92 1056ft 77kts
08-Jan-19 18:49 35.092555 -120.572729 94 2056ft 79kts
08-Jan-19 18:50 35.088767 -120.546244 98 3003ft 80kts
08-Jan-19 18:51 35.084990 -120.519346 97 3896ft 81kts
08-Jan-19 18:52 35.080953 -120.492090 97 4737ft 82kts
08-Jan-19 18:53 35.076456 -120.464621 98 5530ft 83kts
08-Jan-19 18:54 35.070997 -120.436995 104 6273ft 84kts
08-Jan-19 18:55 35.064348 -120.409373 100 6976ft 85kts
08-Jan-19 18:56 35.059773 -120.379867 98 7527ft 98kts
08-Jan-19 18:57 35.055734 -120.344112 98 7679ft 115kts
08-Jan-19 18:58 35.049051 -120.305666 103 7505ft 116kts
08-Jan-19 18:59 35.040962 -120.267406 104 7385ft 116kts
08-Jan-19 19:00 35.032950 -120.229351 104 7338ft 116kts
08-Jan-19 19:01 35.025359 -120.191067 102 7319ft 116kts
08-Jan-19 19:02 35.018530 -120.152591 100 7336ft 116kts
08-Jan-19 19:03 35.013215 -120.113915 98 7363ft 116kts
08-Jan-19 19:04 35.008573 -120.074872 100 7395ft 116kts
08-Jan-19 19:05 35.003347 -120.036158 97 7101ft 115kts
08-Jan-19 19:06 34.997341 -119.997563 102 6559ft 116kts
08-Jan-19 19:07 34.989751 -119.959831 103 5668ft 115kts
08-Jan-19 19:08 34.981785 -119.922545 103 5096ft 113kts
08-Jan-19 19:09 34.975111 -119.885239 101 4641ft 112kts
08-Jan-19 19:10 34.968683 -119.848083 101 4201ft 111kts
08-Jan-19 19:11 34.962924 -119.811086 102 3787ft 111kts
08-Jan-19 19:12 34.952252 -119.776147 119 3402ft 111kts
08-Jan-19 19:13 34.937123 -119.743698 121 3310ft 109kts
08-Jan-19 19:14 34.927823 -119.709402 84 3358ft 107kts
08-Jan-19 19:15 34.923779 -119.677777 116 3141ft 87kts
08-Jan-19 19:16 34.933676 -119.668882 284 2760ft 89kts
08-Jan-19 19:17 34.944075 -119.693357 290 2281ft 81kts
08-Jan-19 19:18 34.930543 -119.697560 136 3027ft 85kts
08-Jan-19 19:19 34.924834 -119.672300 30 3362ft 85kts
08-Jan-19 19:20 34.940395 -119.688155 267 2556ft 71kts
08-Jan-19 19:21 34.937033 -119.679706 326 2367ft 86kts
08-Jan-19 19:22 34.942473 -119.691002 311 2156ft 9kts
08-Jan-19 19:23 34.943060 -119.690863 17 2155ft 0kts
08-Jan-19 19:24 34.943060 -119.690863 17 2155ft 0kts
08-Jan-19 19:25 34.943060 -119.690863 17 2155ft 0kts
08-Jan-19 19:26 34.943060 -119.690863 17 2155ft 0kts
08-Jan-19 19:27 34.431757 -119.834092 339 14ft 0kts
08-Jan-19 19:28 34.431757 -119.834092 339 14ft 0kts
08-Jan-19 19:29 34.431757 -119.834092 339 14ft 0kts

Navigation Log

Ident Type
Flight plan parsing failed, navigation log unavailable